SBI5032 UWWW-UNNT
Flight info
| Callsign | SBI5032 |
|---|---|
| Flight time | 2h 35m |
| Altitude | 37000 |
| Route | PIRIK P135 BUGOT L749 LUKAS M864 GISMA B926 SZ W1 GOLIM |
| Aircraft | A320/M-SDE2E3FGHIRWXY/LB1 |
Departure
| Time | 2026-05-01 10:49 |
|---|---|
| Airport | Kurumoch International Airport (UWWW) |
Arrival
| Time | 2026-05-01 13:25 |
|---|---|
| Airport | Novosibirsk Tolmachevo Airport (UNNT) |
| Time | Latitude | Longitude | Altitude | Speed | Heading |
|---|---|---|---|---|---|
| 2026-05-01 10:18 | 53.51156 | 50.15876 | 447 ft | 0 kts | 332° |
| 2026-05-01 10:35 | 53.51145 | 50.15886 | 447 ft | 4 kts | 332° |
| 2026-05-01 10:35 | 53.51126 | 50.15903 | 447 ft | 4 kts | 334° |
| 2026-05-01 10:35 | 53.51101 | 50.15915 | 447 ft | 4 kts | 7° |
| 2026-05-01 10:36 | 53.51067 | 50.15877 | 447 ft | 0 kts | 60° |
| 2026-05-01 10:40 | 53.51072 | 50.15893 | 447 ft | 3 kts | 60° |
| 2026-05-01 10:40 | 53.51091 | 50.15949 | 447 ft | 6 kts | 60° |
| 2026-05-01 10:41 | 53.51109 | 50.16003 | 447 ft | 4 kts | 62° |
| 2026-05-01 10:41 | 53.51121 | 50.16041 | 447 ft | 5 kts | 63° |
| 2026-05-01 10:41 | 53.51125 | 50.16259 | 447 ft | 10 kts | 122° |
| 2026-05-01 10:42 | 53.51091 | 50.16353 | 447 ft | 8 kts | 121° |
| 2026-05-01 10:42 | 53.51063 | 50.16432 | 447 ft | 9 kts | 121° |
| 2026-05-01 10:42 | 53.51015 | 50.16559 | 447 ft | 15 kts | 122° |
| 2026-05-01 10:42 | 53.50965 | 50.16694 | 447 ft | 12 kts | 122° |
| 2026-05-01 10:43 | 53.50922 | 50.16811 | 446 ft | 11 kts | 122° |
| 2026-05-01 10:43 | 53.50883 | 50.16919 | 437 ft | 12 kts | 121° |
| 2026-05-01 10:43 | 53.50813 | 50.17046 | 446 ft | 14 kts | 156° |
| 2026-05-01 10:43 | 53.50725 | 50.17096 | 446 ft | 12 kts | 160° |
| 2026-05-01 10:44 | 53.50649 | 50.17141 | 447 ft | 13 kts | 161° |
| 2026-05-01 10:44 | 53.50527 | 50.17214 | 447 ft | 20 kts | 160° |
| 2026-05-01 10:44 | 53.50405 | 50.17289 | 447 ft | 18 kts | 160° |
| 2026-05-01 10:44 | 53.50295 | 50.17353 | 447 ft | 16 kts | 161° |
| 2026-05-01 10:45 | 53.50200 | 50.17412 | 446 ft | 14 kts | 160° |
| 2026-05-01 10:45 | 53.50103 | 50.17469 | 446 ft | 19 kts | 160° |
| 2026-05-01 10:45 | 53.49958 | 50.17555 | 446 ft | 22 kts | 160° |
| 2026-05-01 10:45 | 53.49828 | 50.17633 | 446 ft | 16 kts | 160° |
| 2026-05-01 10:46 | 53.49731 | 50.17691 | 446 ft | 14 kts | 160° |
| 2026-05-01 10:46 | 53.49647 | 50.17741 | 446 ft | 12 kts | 160° |
| 2026-05-01 10:46 | 53.49549 | 50.17802 | 446 ft | 16 kts | 159° |
| 2026-05-01 10:46 | 53.49451 | 50.17859 | 446 ft | 14 kts | 161° |
| 2026-05-01 10:47 | 53.49367 | 50.17907 | 447 ft | 12 kts | 161° |
| 2026-05-01 10:47 | 53.49303 | 50.17968 | 446 ft | 10 kts | 136° |
| 2026-05-01 10:47 | 53.49278 | 50.18059 | 446 ft | 8 kts | 100° |
| 2026-05-01 10:47 | 53.49280 | 50.18140 | 446 ft | 6 kts | 85° |
| 2026-05-01 10:48 | 53.49300 | 50.18239 | 437 ft | 12 kts | 68° |
| 2026-05-01 10:48 | 53.49342 | 50.18343 | 444 ft | 7 kts | 10° |
| 2026-05-01 10:48 | 53.49381 | 50.18323 | 437 ft | 0 kts | 340° |
| 2026-05-01 10:49 | 53.49515 | 50.18244 | 439 ft | 57 kts | 341° |
| 2026-05-01 10:49 | 53.50141 | 50.17871 | 434 ft | 131 kts | 341° |
| 2026-05-01 10:49 | 53.51176 | 50.17257 | 612 ft | 174 kts | 342° |
| 2026-05-01 10:49 | 53.52353 | 50.16563 | 1296 ft | 185 kts | 340° |
| 2026-05-01 10:50 | 53.53569 | 50.15838 | 2014 ft | 187 kts | 339° |
| 2026-05-01 10:50 | 53.54800 | 50.15119 | 2668 ft | 187 kts | 339° |
| 2026-05-01 10:50 | 53.56021 | 50.14392 | 3365 ft | 184 kts | 338° |
| 2026-05-01 10:50 | 53.57249 | 50.13651 | 3823 ft | 195 kts | 338° |
| 2026-05-01 10:51 | 53.58604 | 50.12828 | 4045 ft | 219 kts | 338° |
| 2026-05-01 10:51 | 53.60118 | 50.11918 | 4359 ft | 243 kts | 340° |
| 2026-05-01 10:51 | 53.61862 | 50.11610 | 4855 ft | 261 kts | 3° |
| 2026-05-01 10:51 | 53.63668 | 50.11899 | 5616 ft | 266 kts | 3° |
| 2026-05-01 10:52 | 53.65523 | 50.12193 | 6415 ft | 270 kts | 4° |
| 2026-05-01 10:52 | 53.67411 | 50.12488 | 7159 ft | 274 kts | 3° |
| 2026-05-01 10:52 | 53.69322 | 50.12783 | 7921 ft | 278 kts | 2° |
| 2026-05-01 10:52 | 53.71260 | 50.13081 | 8701 ft | 282 kts | 2° |
| 2026-05-01 10:53 | 53.73238 | 50.13384 | 9086 ft | 287 kts | 1° |
| 2026-05-01 10:53 | 53.75225 | 50.13700 | 9900 ft | 289 kts | 4° |
| 2026-05-01 10:53 | 53.77148 | 50.14808 | 10549 ft | 301 kts | 32° |
| 2026-05-01 10:53 | 53.78541 | 50.17486 | 11160 ft | 310 kts | 65° |
| 2026-05-01 10:54 | 53.79051 | 50.21053 | 11559 ft | 324 kts | 85° |
| 2026-05-01 10:54 | 53.79199 | 50.24990 | 11718 ft | 346 kts | 90° |
| 2026-05-01 10:54 | 53.79226 | 50.29178 | 11861 ft | 366 kts | 91° |
| 2026-05-01 10:54 | 53.79211 | 50.33551 | 12325 ft | 375 kts | 92° |
| 2026-05-01 10:55 | 53.79202 | 50.37987 | 12962 ft | 379 kts | 91° |
| 2026-05-01 10:55 | 53.79218 | 50.42413 | 13609 ft | 383 kts | 91° |
| 2026-05-01 10:55 | 53.79257 | 50.46932 | 14212 ft | 386 kts | 91° |
| 2026-05-01 10:55 | 53.79314 | 50.51494 | 14784 ft | 389 kts | 91° |
| 2026-05-01 10:56 | 53.79510 | 50.56086 | 15341 ft | 394 kts | 83° |
| 2026-05-01 10:56 | 53.80184 | 50.60606 | 15898 ft | 400 kts | 72° |
| 2026-05-01 10:56 | 53.81276 | 50.64965 | 16440 ft | 405 kts | 68° |
| 2026-05-01 10:56 | 53.82428 | 50.69337 | 16987 ft | 408 kts | 68° |
| 2026-05-01 10:57 | 53.83576 | 50.73761 | 17523 ft | 411 kts | 69° |
| 2026-05-01 10:57 | 53.84723 | 50.78219 | 18090 ft | 415 kts | 69° |
| 2026-05-01 10:57 | 53.85877 | 50.82720 | 18583 ft | 418 kts | 69° |
| 2026-05-01 10:57 | 53.87040 | 50.87261 | 19042 ft | 422 kts | 69° |
| 2026-05-01 10:58 | 53.88214 | 50.91841 | 19511 ft | 425 kts | 69° |
| 2026-05-01 10:58 | 53.89400 | 50.96461 | 19962 ft | 429 kts | 69° |
| 2026-05-01 10:58 | 53.90589 | 51.01105 | 20421 ft | 432 kts | 70° |
| 2026-05-01 10:58 | 53.91791 | 51.05811 | 20845 ft | 435 kts | 70° |
| 2026-05-01 10:59 | 53.92998 | 51.10542 | 21267 ft | 439 kts | 70° |
| 2026-05-01 10:59 | 53.94213 | 51.15314 | 21681 ft | 442 kts | 70° |
| 2026-05-01 10:59 | 53.95437 | 51.20128 | 22092 ft | 446 kts | 70° |
| 2026-05-01 10:59 | 53.96654 | 51.24920 | 22475 ft | 449 kts | 70° |
| 2026-05-01 11:00 | 53.97905 | 51.29866 | 22854 ft | 453 kts | 71° |
| 2026-05-01 11:00 | 53.99135 | 51.34746 | 23235 ft | 456 kts | 71° |
| 2026-05-01 11:00 | 54.00485 | 51.39652 | 23580 ft | 462 kts | 64° |
| 2026-05-01 11:00 | 54.02264 | 51.44248 | 23877 ft | 469 kts | 55° |
| 2026-05-01 11:01 | 54.04323 | 51.48597 | 24151 ft | 473 kts | 54° |
| 2026-05-01 11:01 | 54.06383 | 51.52983 | 24434 ft | 476 kts | 54° |
| 2026-05-01 11:01 | 54.08440 | 51.57411 | 24716 ft | 478 kts | 55° |
| 2026-05-01 11:01 | 54.10504 | 51.61884 | 25019 ft | 481 kts | 55° |
| 2026-05-01 11:02 | 54.12576 | 51.66380 | 25308 ft | 483 kts | 56° |
| 2026-05-01 11:02 | 54.14662 | 51.70901 | 25589 ft | 486 kts | 56° |
| 2026-05-01 11:02 | 54.16763 | 51.75449 | 25863 ft | 488 kts | 56° |
| 2026-05-01 11:02 | 54.18867 | 51.80004 | 26133 ft | 491 kts | 56° |
| 2026-05-01 11:03 | 54.20963 | 51.84548 | 26400 ft | 493 kts | 56° |
| 2026-05-01 11:03 | 54.23089 | 51.89168 | 26662 ft | 496 kts | 56° |
| 2026-05-01 11:03 | 54.25253 | 51.93882 | 26919 ft | 498 kts | 57° |
| 2026-05-01 11:03 | 54.27365 | 51.98498 | 27172 ft | 500 kts | 57° |
| 2026-05-01 11:04 | 54.29512 | 52.03194 | 27432 ft | 502 kts | 57° |
| 2026-05-01 11:04 | 54.31668 | 52.07913 | 27665 ft | 504 kts | 57° |
| 2026-05-01 11:04 | 54.33825 | 52.12643 | 27894 ft | 506 kts | 57° |
| 2026-05-01 11:04 | 54.35294 | 52.15870 | 28046 ft | 507 kts | 57° |
| 2026-05-01 11:05 | 54.37468 | 52.20649 | 28281 ft | 509 kts | 57° |
| 2026-05-01 11:05 | 54.39615 | 52.25378 | 28493 ft | 510 kts | 57° |
| 2026-05-01 11:05 | 54.41796 | 52.30202 | 28690 ft | 512 kts | 57° |
| 2026-05-01 11:05 | 54.43980 | 52.35047 | 28900 ft | 514 kts | 58° |
| 2026-05-01 11:06 | 54.46169 | 52.39923 | 29104 ft | 515 kts | 58° |
| 2026-05-01 11:06 | 54.48357 | 52.44805 | 29389 ft | 515 kts | 58° |
| 2026-05-01 11:06 | 54.50541 | 52.49681 | 29669 ft | 514 kts | 58° |
| 2026-05-01 11:07 | 54.54900 | 52.59445 | 30194 ft | 514 kts | 58° |
| 2026-05-01 11:07 | 54.57072 | 52.64333 | 30431 ft | 514 kts | 58° |
| 2026-05-01 11:07 | 54.59241 | 52.69227 | 30641 ft | 514 kts | 58° |
| 2026-05-01 11:07 | 54.61393 | 52.74152 | 30866 ft | 512 kts | 61° |
| 2026-05-01 11:08 | 54.63208 | 52.79375 | 31089 ft | 504 kts | 70° |
| 2026-05-01 11:08 | 54.64561 | 52.84898 | 31288 ft | 495 kts | 79° |
| 2026-05-01 11:08 | 54.66242 | 52.96305 | 31689 ft | 489 kts | 84° |
| 2026-05-01 11:09 | 54.67020 | 53.02028 | 31916 ft | 490 kts | 84° |
| 2026-05-01 11:09 | 54.67801 | 53.07753 | 32119 ft | 490 kts | 84° |
| 2026-05-01 11:09 | 54.68583 | 53.13495 | 32327 ft | 491 kts | 84° |
| 2026-05-01 11:10 | 54.70134 | 53.24979 | 32751 ft | 491 kts | 84° |
| 2026-05-01 11:10 | 54.70907 | 53.30740 | 32966 ft | 491 kts | 84° |
| 2026-05-01 11:10 | 54.71669 | 53.36439 | 33164 ft | 492 kts | 84° |
| 2026-05-01 11:10 | 54.72436 | 53.42205 | 33371 ft | 492 kts | 84° |
| 2026-05-01 11:11 | 54.73201 | 53.47978 | 33575 ft | 492 kts | 84° |
| 2026-05-01 11:11 | 54.73965 | 53.53755 | 33785 ft | 493 kts | 84° |
| 2026-05-01 11:11 | 54.74727 | 53.59542 | 33982 ft | 493 kts | 84° |
| 2026-05-01 11:11 | 54.75486 | 53.65344 | 34152 ft | 493 kts | 84° |
| 2026-05-01 11:12 | 54.76240 | 53.71134 | 34346 ft | 493 kts | 84° |
| 2026-05-01 11:12 | 54.76992 | 53.76918 | 34517 ft | 493 kts | 84° |
| 2026-05-01 11:12 | 54.77745 | 53.82718 | 34687 ft | 493 kts | 84° |
| 2026-05-01 11:12 | 54.78492 | 53.88493 | 34856 ft | 493 kts | 84° |
| 2026-05-01 11:13 | 54.79237 | 53.94303 | 35018 ft | 492 kts | 84° |
| 2026-05-01 11:13 | 54.79975 | 54.00098 | 35173 ft | 492 kts | 83° |
| 2026-05-01 11:13 | 54.80711 | 54.05892 | 35339 ft | 492 kts | 83° |
| 2026-05-01 11:13 | 54.81435 | 54.11623 | 35490 ft | 492 kts | 83° |
| 2026-05-01 11:14 | 54.82164 | 54.17419 | 35643 ft | 492 kts | 83° |
| 2026-05-01 11:14 | 54.82895 | 54.23220 | 35790 ft | 491 kts | 83° |
| 2026-05-01 11:14 | 54.83623 | 54.29017 | 35933 ft | 491 kts | 83° |
| 2026-05-01 11:14 | 54.84346 | 54.34797 | 36080 ft | 491 kts | 83° |
| 2026-05-01 11:15 | 54.85069 | 54.40602 | 36224 ft | 491 kts | 83° |
| 2026-05-01 11:15 | 54.85785 | 54.46393 | 36349 ft | 490 kts | 83° |
| 2026-05-01 11:15 | 54.86495 | 54.52176 | 36475 ft | 490 kts | 83° |
| 2026-05-01 11:15 | 54.87201 | 54.57969 | 36604 ft | 490 kts | 83° |
| 2026-05-01 11:16 | 54.87904 | 54.63764 | 36732 ft | 490 kts | 83° |
| 2026-05-01 11:16 | 54.88602 | 54.69541 | 36886 ft | 489 kts | 83° |
| 2026-05-01 11:16 | 54.89999 | 54.81109 | 36948 ft | 490 kts | 83° |
| 2026-05-01 11:17 | 54.91398 | 54.92714 | 36942 ft | 490 kts | 83° |
| 2026-05-01 11:17 | 54.92773 | 55.04244 | 36942 ft | 490 kts | 83° |
| 2026-05-01 11:18 | 54.94150 | 55.15916 | 36934 ft | 489 kts | 83° |
| 2026-05-01 11:18 | 54.95496 | 55.27438 | 36935 ft | 489 kts | 83° |
| 2026-05-01 11:19 | 54.96836 | 55.39046 | 36938 ft | 489 kts | 83° |
| 2026-05-01 11:19 | 54.98170 | 55.50674 | 36934 ft | 489 kts | 83° |
| 2026-05-01 11:20 | 54.99494 | 55.62300 | 36927 ft | 489 kts | 83° |
| 2026-05-01 11:20 | 55.00804 | 55.73934 | 36927 ft | 489 kts | 83° |
| 2026-05-01 11:21 | 55.02103 | 55.85583 | 36923 ft | 489 kts | 84° |
| 2026-05-01 11:21 | 55.03392 | 55.97219 | 36927 ft | 489 kts | 84° |
| 2026-05-01 11:22 | 55.04665 | 56.08799 | 36923 ft | 489 kts | 84° |
| 2026-05-01 11:22 | 55.05933 | 56.20457 | 36924 ft | 489 kts | 84° |
| 2026-05-01 11:23 | 55.07187 | 56.32109 | 36921 ft | 489 kts | 84° |
| 2026-05-01 11:23 | 55.08421 | 56.43785 | 36923 ft | 489 kts | 84° |
| 2026-05-01 11:24 | 55.09645 | 56.55383 | 36925 ft | 489 kts | 84° |
| 2026-05-01 11:25 | 55.11484 | 56.72901 | 36932 ft | 489 kts | 84° |
| 2026-05-01 11:25 | 55.13302 | 56.90474 | 36936 ft | 489 kts | 84° |
| 2026-05-01 11:26 | 55.15079 | 57.08023 | 36936 ft | 489 kts | 84° |
| 2026-05-01 11:27 | 55.16259 | 57.19769 | 36942 ft | 489 kts | 84° |
| 2026-05-01 11:27 | 55.17429 | 57.31495 | 36940 ft | 489 kts | 85° |
| 2026-05-01 11:28 | 55.18581 | 57.43247 | 36946 ft | 489 kts | 85° |
| 2026-05-01 11:28 | 55.19715 | 57.54907 | 36945 ft | 489 kts | 85° |
| 2026-05-01 11:29 | 55.21408 | 57.72546 | 36948 ft | 489 kts | 85° |
| 2026-05-01 11:30 | 55.23070 | 57.90168 | 36951 ft | 489 kts | 85° |
| 2026-05-01 11:30 | 55.24163 | 58.01927 | 36949 ft | 489 kts | 85° |
| 2026-05-01 11:31 | 55.25245 | 58.13708 | 36950 ft | 489 kts | 85° |
| 2026-05-01 11:31 | 55.26334 | 58.25476 | 36946 ft | 489 kts | 85° |
| 2026-05-01 11:32 | 55.27411 | 58.37184 | 36950 ft | 489 kts | 85° |
| 2026-05-01 11:32 | 55.28476 | 58.48961 | 36941 ft | 488 kts | 86° |
| 2026-05-01 11:33 | 55.29521 | 58.60731 | 36945 ft | 488 kts | 86° |
| 2026-05-01 11:33 | 55.30555 | 58.72529 | 36950 ft | 489 kts | 86° |
| 2026-05-01 11:34 | 55.31578 | 58.84340 | 36957 ft | 489 kts | 86° |
| 2026-05-01 11:34 | 55.32596 | 58.96152 | 36942 ft | 489 kts | 86° |
| 2026-05-01 11:35 | 55.33608 | 59.07968 | 36951 ft | 489 kts | 86° |
| 2026-05-01 11:35 | 55.34596 | 59.19792 | 36938 ft | 489 kts | 86° |
| 2026-05-01 11:36 | 55.35567 | 59.31557 | 36946 ft | 490 kts | 86° |
| 2026-05-01 11:36 | 55.36541 | 59.43403 | 36944 ft | 490 kts | 86° |
| 2026-05-01 11:37 | 55.37506 | 59.55256 | 36943 ft | 489 kts | 86° |
| 2026-05-01 11:37 | 55.38453 | 59.67115 | 36933 ft | 489 kts | 86° |
| 2026-05-01 11:38 | 55.39346 | 59.78979 | 36932 ft | 488 kts | 89° |
| 2026-05-01 11:38 | 55.39816 | 59.90830 | 36922 ft | 484 kts | 93° |
| 2026-05-01 11:39 | 55.40016 | 60.02660 | 36920 ft | 483 kts | 93° |
| 2026-05-01 11:39 | 55.40243 | 60.14497 | 36912 ft | 484 kts | 92° |
| 2026-05-01 11:40 | 55.40555 | 60.26244 | 36911 ft | 484 kts | 92° |
| 2026-05-01 11:40 | 55.40901 | 60.38084 | 36908 ft | 484 kts | 92° |
| 2026-05-01 11:41 | 55.41217 | 60.49906 | 36998 ft | 482 kts | 92° |
| 2026-05-01 11:41 | 55.41364 | 60.55766 | 36863 ft | 475 kts | 92° |
| 2026-05-01 11:41 | 55.41504 | 60.61578 | 36887 ft | 474 kts | 92° |
| 2026-05-01 11:42 | 55.41758 | 60.73153 | 36880 ft | 473 kts | 92° |
| 2026-05-01 11:42 | 55.42059 | 60.84729 | 36869 ft | 475 kts | 87° |
| 2026-05-01 11:43 | 55.43437 | 60.96204 | 36864 ft | 480 kts | 81° |
| 2026-05-01 11:43 | 55.44954 | 61.07646 | 36856 ft | 480 kts | 81° |
| 2026-05-01 11:44 | 55.47177 | 61.24764 | 36843 ft | 480 kts | 82° |
| 2026-05-01 11:44 | 55.48660 | 61.36315 | 36844 ft | 480 kts | 82° |
| 2026-05-01 11:45 | 55.50114 | 61.47729 | 36846 ft | 480 kts | 82° |
| 2026-05-01 11:45 | 55.51569 | 61.59249 | 36846 ft | 480 kts | 82° |
| 2026-05-01 11:46 | 55.53017 | 61.70770 | 36843 ft | 480 kts | 82° |
| 2026-05-01 11:46 | 55.54456 | 61.82285 | 36836 ft | 480 kts | 82° |
| 2026-05-01 11:47 | 55.55878 | 61.93800 | 36827 ft | 480 kts | 82° |
| 2026-05-01 11:47 | 55.57283 | 62.05333 | 36818 ft | 480 kts | 82° |
| 2026-05-01 11:48 | 55.58686 | 62.16880 | 36811 ft | 480 kts | 83° |
| 2026-05-01 11:48 | 55.60070 | 62.28345 | 36814 ft | 480 kts | 83° |
| 2026-05-01 11:49 | 55.61447 | 62.39905 | 36804 ft | 481 kts | 83° |
| 2026-05-01 11:49 | 55.62819 | 62.51482 | 36790 ft | 480 kts | 83° |
| 2026-05-01 11:50 | 55.64176 | 62.63049 | 36784 ft | 480 kts | 83° |
| 2026-05-01 11:50 | 55.65519 | 62.74623 | 36777 ft | 480 kts | 83° |
| 2026-05-01 11:51 | 55.66845 | 62.86199 | 36766 ft | 479 kts | 83° |
| 2026-05-01 11:51 | 55.68170 | 62.97771 | 36757 ft | 479 kts | 83° |
| 2026-05-01 11:52 | 55.69491 | 63.09369 | 36753 ft | 480 kts | 84° |
| 2026-05-01 11:52 | 55.70576 | 63.19003 | 36759 ft | 480 kts | 84° |
| 2026-05-01 11:53 | 55.71878 | 63.30608 | 36757 ft | 479 kts | 84° |
| 2026-05-01 11:53 | 55.73165 | 63.42236 | 36739 ft | 479 kts | 84° |
| 2026-05-01 11:54 | 55.74437 | 63.53835 | 36735 ft | 479 kts | 84° |
| 2026-05-01 11:54 | 55.75696 | 63.65445 | 36733 ft | 479 kts | 84° |
| 2026-05-01 11:55 | 55.76936 | 63.76991 | 36727 ft | 478 kts | 85° |
| 2026-05-01 11:55 | 55.78016 | 63.88625 | 36721 ft | 477 kts | 87° |
| 2026-05-01 11:56 | 55.78918 | 64.00281 | 36715 ft | 476 kts | 88° |
| 2026-05-01 11:56 | 55.79811 | 64.11944 | 36717 ft | 476 kts | 88° |
| 2026-05-01 11:57 | 55.80749 | 64.23609 | 36707 ft | 476 kts | 87° |
| 2026-05-01 11:57 | 55.81692 | 64.35283 | 36703 ft | 476 kts | 88° |
| 2026-05-01 11:58 | 55.82617 | 64.46950 | 36700 ft | 476 kts | 88° |
| 2026-05-01 11:59 | 55.83964 | 64.64359 | 36693 ft | 476 kts | 88° |
| 2026-05-01 11:59 | 55.84848 | 64.76033 | 36688 ft | 476 kts | 88° |
| 2026-05-01 12:00 | 55.86154 | 64.93536 | 36684 ft | 476 kts | 88° |
| 2026-05-01 12:01 | 55.87439 | 65.11058 | 36708 ft | 476 kts | 88° |
| 2026-05-01 12:01 | 55.88281 | 65.22752 | 36695 ft | 476 kts | 88° |
| 2026-05-01 12:02 | 55.89110 | 65.34470 | 36661 ft | 476 kts | 89° |
| 2026-05-01 12:02 | 55.89938 | 65.46197 | 36668 ft | 476 kts | 89° |
| 2026-05-01 12:03 | 55.90758 | 65.57911 | 36667 ft | 476 kts | 89° |
| 2026-05-01 12:03 | 55.91560 | 65.69637 | 36669 ft | 476 kts | 89° |
| 2026-05-01 12:04 | 55.92349 | 65.81361 | 36674 ft | 477 kts | 89° |
| 2026-05-01 12:04 | 55.93130 | 65.93113 | 36673 ft | 477 kts | 89° |
| 2026-05-01 12:05 | 55.93889 | 66.04796 | 36670 ft | 477 kts | 89° |
| 2026-05-01 12:05 | 55.95031 | 66.22459 | 36670 ft | 477 kts | 89° |
| 2026-05-01 12:06 | 55.95780 | 66.34242 | 36669 ft | 478 kts | 89° |
| 2026-05-01 12:06 | 55.96508 | 66.46020 | 36678 ft | 478 kts | 90° |
| 2026-05-01 12:07 | 55.97228 | 66.57815 | 36676 ft | 478 kts | 89° |
| 2026-05-01 12:07 | 55.97944 | 66.69614 | 36682 ft | 478 kts | 90° |
| 2026-05-01 12:08 | 55.98643 | 66.81423 | 36683 ft | 478 kts | 90° |
| 2026-05-01 12:08 | 55.99327 | 66.93152 | 36687 ft | 478 kts | 90° |
| 2026-05-01 12:09 | 56.00004 | 67.04968 | 36685 ft | 478 kts | 90° |
| 2026-05-01 12:09 | 56.00670 | 67.16783 | 36688 ft | 478 kts | 90° |
| 2026-05-01 12:10 | 56.01649 | 67.34501 | 36689 ft | 478 kts | 90° |
| 2026-05-01 12:11 | 56.02845 | 67.52199 | 36684 ft | 478 kts | 89° |
| 2026-05-01 12:11 | 56.03646 | 67.63994 | 36684 ft | 477 kts | 89° |
| 2026-05-01 12:12 | 56.04414 | 67.75795 | 36678 ft | 477 kts | 89° |
| 2026-05-01 12:12 | 56.05178 | 67.87598 | 36679 ft | 477 kts | 89° |
| 2026-05-01 12:13 | 56.05927 | 67.99320 | 36684 ft | 477 kts | 90° |
| 2026-05-01 12:13 | 56.06667 | 68.11131 | 36680 ft | 477 kts | 90° |
| 2026-05-01 12:14 | 56.07394 | 68.22937 | 36693 ft | 477 kts | 90° |
| 2026-05-01 12:14 | 56.08114 | 68.34754 | 36696 ft | 477 kts | 90° |
| 2026-05-01 12:15 | 56.08828 | 68.46567 | 36677 ft | 477 kts | 90° |
| 2026-05-01 12:15 | 56.09523 | 68.58404 | 36686 ft | 477 kts | 90° |
| 2026-05-01 12:16 | 56.10195 | 68.70228 | 36676 ft | 477 kts | 90° |
| 2026-05-01 12:16 | 56.10871 | 68.82058 | 36680 ft | 477 kts | 90° |
| 2026-05-01 12:17 | 56.11536 | 68.93808 | 36687 ft | 477 kts | 90° |
| 2026-05-01 12:17 | 56.12186 | 69.05650 | 36686 ft | 477 kts | 91° |
| 2026-05-01 12:18 | 56.12818 | 69.17481 | 36689 ft | 477 kts | 91° |
| 2026-05-01 12:18 | 56.13442 | 69.29329 | 36695 ft | 477 kts | 91° |
| 2026-05-01 12:19 | 56.14058 | 69.41169 | 36687 ft | 477 kts | 91° |
| 2026-05-01 12:19 | 56.14423 | 69.52983 | 36693 ft | 473 kts | 95° |
| 2026-05-01 12:20 | 56.14431 | 69.64732 | 36687 ft | 469 kts | 100° |
| 2026-05-01 12:20 | 56.13722 | 69.76264 | 36688 ft | 465 kts | 103° |
| 2026-05-01 12:21 | 56.13074 | 69.87806 | 36687 ft | 465 kts | 102° |
| 2026-05-01 12:21 | 56.12470 | 69.99367 | 36683 ft | 465 kts | 102° |
| 2026-05-01 12:22 | 56.11829 | 70.10905 | 36693 ft | 465 kts | 102° |
| 2026-05-01 12:22 | 56.11156 | 70.22405 | 36683 ft | 464 kts | 103° |
| 2026-05-01 12:23 | 56.10467 | 70.33909 | 36678 ft | 464 kts | 103° |
| 2026-05-01 12:23 | 56.09787 | 70.45338 | 36675 ft | 464 kts | 103° |
| 2026-05-01 12:24 | 56.09097 | 70.56919 | 36677 ft | 464 kts | 103° |
| 2026-05-01 12:24 | 56.08385 | 70.68328 | 36675 ft | 464 kts | 103° |
| 2026-05-01 12:25 | 56.07286 | 70.85556 | 36665 ft | 464 kts | 103° |
| 2026-05-01 12:26 | 56.06555 | 70.97051 | 36665 ft | 464 kts | 103° |
| 2026-05-01 12:26 | 56.05435 | 71.14270 | 36654 ft | 464 kts | 103° |
| 2026-05-01 12:27 | 56.04278 | 71.31494 | 36651 ft | 465 kts | 103° |
| 2026-05-01 12:28 | 56.03105 | 71.48726 | 36643 ft | 465 kts | 103° |
| 2026-05-01 12:29 | 56.01917 | 71.65862 | 36642 ft | 465 kts | 103° |
| 2026-05-01 12:29 | 56.00689 | 71.83084 | 36640 ft | 465 kts | 103° |
| 2026-05-01 12:30 | 55.99437 | 72.00272 | 36636 ft | 465 kts | 103° |
| 2026-05-01 12:31 | 55.98595 | 72.11720 | 36635 ft | 465 kts | 103° |
| 2026-05-01 12:31 | 55.97744 | 72.23177 | 36634 ft | 465 kts | 103° |
| 2026-05-01 12:32 | 55.96878 | 72.34608 | 36633 ft | 464 kts | 103° |
| 2026-05-01 12:32 | 55.95552 | 72.51738 | 36639 ft | 464 kts | 104° |
| 2026-05-01 12:33 | 55.94664 | 72.63078 | 36641 ft | 464 kts | 103° |
| 2026-05-01 12:33 | 55.93779 | 72.74481 | 36650 ft | 464 kts | 103° |
| 2026-05-01 12:34 | 55.92878 | 72.85874 | 36650 ft | 463 kts | 104° |
| 2026-05-01 12:34 | 55.91959 | 72.97252 | 36653 ft | 463 kts | 104° |
| 2026-05-01 12:35 | 55.91034 | 73.08626 | 36657 ft | 464 kts | 104° |
| 2026-05-01 12:35 | 55.90092 | 73.20005 | 36666 ft | 464 kts | 104° |
| 2026-05-01 12:36 | 55.89135 | 73.31370 | 36669 ft | 464 kts | 104° |
| 2026-05-01 12:36 | 55.88163 | 73.42659 | 36673 ft | 464 kts | 104° |
| 2026-05-01 12:37 | 55.87171 | 73.54016 | 36678 ft | 464 kts | 104° |
| 2026-05-01 12:37 | 55.86164 | 73.65392 | 36681 ft | 465 kts | 104° |
| 2026-05-01 12:38 | 55.85151 | 73.76762 | 36688 ft | 465 kts | 104° |
| 2026-05-01 12:38 | 55.84302 | 73.86208 | 36694 ft | 465 kts | 104° |
| 2026-05-01 12:39 | 55.83265 | 73.97577 | 36698 ft | 465 kts | 104° |
| 2026-05-01 12:39 | 55.82216 | 74.08936 | 36704 ft | 465 kts | 104° |
| 2026-05-01 12:40 | 55.80989 | 74.22128 | 36708 ft | 465 kts | 104° |
| 2026-05-01 12:40 | 55.80090 | 74.31636 | 36714 ft | 465 kts | 105° |
| 2026-05-01 12:41 | 55.79011 | 74.42993 | 36722 ft | 466 kts | 105° |
| 2026-05-01 12:41 | 55.77930 | 74.54254 | 36729 ft | 466 kts | 105° |
| 2026-05-01 12:42 | 55.76829 | 74.65596 | 36733 ft | 466 kts | 105° |
| 2026-05-01 12:42 | 55.75720 | 74.76916 | 36738 ft | 466 kts | 105° |
| 2026-05-01 12:43 | 55.74605 | 74.88245 | 36744 ft | 466 kts | 105° |
| 2026-05-01 12:43 | 55.73478 | 74.99570 | 36750 ft | 466 kts | 105° |
| 2026-05-01 12:44 | 55.72336 | 75.10898 | 36754 ft | 466 kts | 105° |
| 2026-05-01 12:45 | 55.70037 | 75.33454 | 36763 ft | 466 kts | 105° |
| 2026-05-01 12:45 | 55.68866 | 75.44769 | 36771 ft | 466 kts | 105° |
| 2026-05-01 12:46 | 55.67679 | 75.56051 | 36770 ft | 466 kts | 105° |
| 2026-05-01 12:46 | 55.66490 | 75.67361 | 36781 ft | 466 kts | 105° |
| 2026-05-01 12:47 | 55.65300 | 75.78648 | 36780 ft | 466 kts | 105° |
| 2026-05-01 12:47 | 55.64090 | 75.89937 | 36786 ft | 466 kts | 105° |
| 2026-05-01 12:48 | 55.62867 | 76.01217 | 36790 ft | 466 kts | 105° |
| 2026-05-01 12:48 | 55.61645 | 76.12423 | 36795 ft | 467 kts | 105° |
| 2026-05-01 12:49 | 55.60407 | 76.23697 | 36801 ft | 467 kts | 105° |
| 2026-05-01 12:49 | 55.59153 | 76.35032 | 36804 ft | 466 kts | 105° |
| 2026-05-01 12:50 | 55.57895 | 76.46208 | 36810 ft | 467 kts | 105° |
| 2026-05-01 12:50 | 55.56625 | 76.57454 | 36809 ft | 467 kts | 105° |
| 2026-05-01 12:51 | 55.55342 | 76.68687 | 36814 ft | 467 kts | 106° |
| 2026-05-01 12:52 | 55.53402 | 76.85541 | 36823 ft | 467 kts | 106° |
| 2026-05-01 12:52 | 55.51446 | 77.02374 | 36822 ft | 467 kts | 106° |
| 2026-05-01 12:53 | 55.49455 | 77.19177 | 36825 ft | 466 kts | 106° |
| 2026-05-01 12:54 | 55.48126 | 77.30304 | 36832 ft | 466 kts | 106° |
| 2026-05-01 12:54 | 55.46099 | 77.47058 | 36838 ft | 466 kts | 106° |
| 2026-05-01 12:55 | 55.44058 | 77.63804 | 36837 ft | 466 kts | 106° |
| 2026-05-01 12:56 | 55.42693 | 77.74955 | 36839 ft | 466 kts | 106° |
| 2026-05-01 12:56 | 55.41301 | 77.86090 | 36834 ft | 466 kts | 106° |
| 2026-05-01 12:57 | 55.39900 | 77.97234 | 36838 ft | 466 kts | 106° |
| 2026-05-01 12:57 | 55.37787 | 78.13906 | 36847 ft | 465 kts | 106° |
| 2026-05-01 12:58 | 55.36380 | 78.24940 | 36852 ft | 465 kts | 106° |
| 2026-05-01 12:59 | 55.34570 | 78.41743 | 36859 ft | 468 kts | 101° |
| 2026-05-01 12:59 | 55.33396 | 78.58793 | 36872 ft | 468 kts | 100° |
| 2026-05-01 13:00 | 55.32069 | 78.75735 | 36872 ft | 467 kts | 102° |
| 2026-05-01 13:01 | 55.30622 | 78.92675 | 36874 ft | 467 kts | 102° |
| 2026-05-01 13:01 | 55.29666 | 79.03892 | 36428 ft | 467 kts | 102° |
| 2026-05-01 13:02 | 55.29189 | 79.09522 | 36171 ft | 467 kts | 102° |
| 2026-05-01 13:07 | 55.18499 | 80.27804 | 23900 ft | 446 kts | 103° |
| 2026-05-01 13:07 | 55.17985 | 80.33138 | 23216 ft | 443 kts | 103° |
| 2026-05-01 13:07 | 55.17472 | 80.38437 | 22566 ft | 439 kts | 103° |
| 2026-05-01 13:08 | 55.16967 | 80.43662 | 21999 ft | 433 kts | 103° |
| 2026-05-01 13:08 | 55.16466 | 80.48839 | 21431 ft | 429 kts | 103° |
| 2026-05-01 13:08 | 55.15973 | 80.53941 | 20908 ft | 424 kts | 103° |
| 2026-05-01 13:08 | 55.15478 | 80.59012 | 20385 ft | 421 kts | 103° |
| 2026-05-01 13:09 | 55.14985 | 80.64026 | 19887 ft | 417 kts | 103° |
| 2026-05-01 13:09 | 55.14492 | 80.69000 | 19395 ft | 414 kts | 103° |
| 2026-05-01 13:09 | 55.13999 | 80.73951 | 18911 ft | 411 kts | 103° |
| 2026-05-01 13:09 | 55.13513 | 80.78806 | 18421 ft | 409 kts | 103° |
| 2026-05-01 13:10 | 55.13016 | 80.83756 | 17861 ft | 407 kts | 103° |
| 2026-05-01 13:10 | 55.12530 | 80.88548 | 17358 ft | 404 kts | 103° |
| 2026-05-01 13:10 | 55.12040 | 80.93368 | 16847 ft | 401 kts | 103° |
| 2026-05-01 13:10 | 55.11310 | 80.98025 | 16310 ft | 395 kts | 115° |
| 2026-05-01 13:11 | 55.10201 | 81.02374 | 15780 ft | 391 kts | 118° |
| 2026-05-01 13:11 | 55.09061 | 81.06681 | 15237 ft | 390 kts | 118° |
| 2026-05-01 13:11 | 55.07921 | 81.10969 | 14662 ft | 389 kts | 118° |
| 2026-05-01 13:11 | 55.06783 | 81.15244 | 14129 ft | 388 kts | 118° |
| 2026-05-01 13:12 | 55.05647 | 81.19510 | 13565 ft | 386 kts | 118° |
| 2026-05-01 13:12 | 55.04519 | 81.23747 | 12993 ft | 384 kts | 118° |
| 2026-05-01 13:12 | 55.03400 | 81.27942 | 12447 ft | 380 kts | 118° |
| 2026-05-01 13:12 | 55.02289 | 81.32100 | 11891 ft | 376 kts | 118° |
| 2026-05-01 13:13 | 55.01189 | 81.36210 | 11336 ft | 373 kts | 118° |
| 2026-05-01 13:13 | 55.00096 | 81.40292 | 10772 ft | 370 kts | 118° |
| 2026-05-01 13:13 | 54.99025 | 81.44297 | 10523 ft | 358 kts | 118° |
| 2026-05-01 13:13 | 54.97996 | 81.48144 | 10407 ft | 343 kts | 118° |
| 2026-05-01 13:14 | 54.97007 | 81.51826 | 10291 ft | 329 kts | 118° |
| 2026-05-01 13:14 | 54.96064 | 81.55314 | 10166 ft | 316 kts | 119° |
| 2026-05-01 13:14 | 54.95141 | 81.58718 | 10048 ft | 305 kts | 119° |
| 2026-05-01 13:14 | 54.94251 | 81.61999 | 9856 ft | 296 kts | 119° |
| 2026-05-01 13:15 | 54.93373 | 81.65229 | 9489 ft | 294 kts | 118° |
| 2026-05-01 13:15 | 54.92722 | 81.68601 | 9142 ft | 295 kts | 104° |
| 2026-05-01 13:15 | 54.92596 | 81.72184 | 8752 ft | 298 kts | 92° |
| 2026-05-01 13:15 | 54.92645 | 81.75757 | 8505 ft | 291 kts | 92° |
| 2026-05-01 13:16 | 54.92685 | 81.79224 | 8244 ft | 285 kts | 92° |
| 2026-05-01 13:16 | 54.92720 | 81.82639 | 7898 ft | 282 kts | 92° |
| 2026-05-01 13:16 | 54.92752 | 81.86049 | 7551 ft | 280 kts | 93° |
| 2026-05-01 13:17 | 54.92840 | 81.96001 | 6546 ft | 272 kts | 91° |
| 2026-05-01 13:17 | 54.93165 | 81.99246 | 6200 ft | 273 kts | 78° |
| 2026-05-01 13:18 | 54.94174 | 82.05566 | 5487 ft | 268 kts | 78° |
| 2026-05-01 13:18 | 54.94666 | 82.08671 | 5154 ft | 265 kts | 78° |
| 2026-05-01 13:18 | 54.95151 | 82.11742 | 4788 ft | 262 kts | 78° |
| 2026-05-01 13:18 | 54.95628 | 82.14789 | 4385 ft | 260 kts | 79° |
| 2026-05-01 13:19 | 54.96109 | 82.17886 | 3703 ft | 266 kts | 78° |
| 2026-05-01 13:19 | 54.96578 | 82.20896 | 3404 ft | 249 kts | 78° |
| 2026-05-01 13:19 | 54.97442 | 82.26406 | 3159 ft | 230 kts | 78° |
| 2026-05-01 13:20 | 54.97858 | 82.29086 | 3053 ft | 226 kts | 79° |
| 2026-05-01 13:20 | 54.98182 | 82.31650 | 2937 ft | 215 kts | 85° |
| 2026-05-01 13:20 | 54.98400 | 82.34184 | 2790 ft | 208 kts | 85° |
| 2026-05-01 13:21 | 54.98830 | 82.38877 | 2528 ft | 179 kts | 85° |
| 2026-05-01 13:21 | 54.99023 | 82.40945 | 2397 ft | 168 kts | 85° |
| 2026-05-01 13:21 | 54.99207 | 82.42941 | 2292 ft | 167 kts | 85° |
| 2026-05-01 13:21 | 54.99392 | 82.44934 | 2226 ft | 167 kts | 85° |
| 2026-05-01 13:22 | 54.99575 | 82.46901 | 2074 ft | 162 kts | 85° |
| 2026-05-01 13:22 | 54.99752 | 82.48816 | 1884 ft | 157 kts | 85° |
| 2026-05-01 13:22 | 54.99918 | 82.50598 | 1702 ft | 144 kts | 86° |
| 2026-05-01 13:22 | 55.00075 | 82.52293 | 1508 ft | 140 kts | 85° |
| 2026-05-01 13:23 | 55.00228 | 82.53960 | 1333 ft | 139 kts | 85° |
| 2026-05-01 13:23 | 55.00380 | 82.55623 | 1129 ft | 140 kts | 83° |
| 2026-05-01 13:23 | 55.00537 | 82.57287 | 913 ft | 141 kts | 82° |
| 2026-05-01 13:23 | 55.00694 | 82.58966 | 718 ft | 139 kts | 82° |
| 2026-05-01 13:24 | 55.00844 | 82.60641 | 565 ft | 140 kts | 82° |
| 2026-05-01 13:24 | 55.00996 | 82.62319 | 415 ft | 140 kts | 82° |
| 2026-05-01 13:24 | 55.01140 | 82.63890 | 375 ft | 115 kts | 78° |
| 2026-05-01 13:25 | 55.01291 | 82.65574 | 373 ft | 45 kts | 81° |
| 2026-05-01 13:25 | 55.01329 | 82.65989 | 373 ft | 29 kts | 81° |
| 2026-05-01 13:25 | 55.01348 | 82.66220 | 372 ft | 28 kts | 82° |
| 2026-05-01 13:25 | 55.01372 | 82.66552 | 374 ft | 16 kts | 112° |
| 2026-05-01 13:26 | 55.01272 | 82.66619 | 373 ft | 17 kts | 172° |
| 2026-05-01 13:26 | 55.01189 | 82.66640 | 373 ft | 10 kts | 172° |
| 2026-05-01 13:26 | 55.01148 | 82.66650 | 373 ft | 8 kts | 172° |
| 2026-05-01 13:26 | 55.01086 | 82.66634 | 373 ft | 6 kts | 221° |
| 2026-05-01 13:27 | 55.01073 | 82.66596 | 373 ft | 5 kts | 244° |
| 2026-05-01 13:27 | 55.01059 | 82.66545 | 373 ft | 4 kts | 242° |
| 2026-05-01 13:27 | 55.00989 | 82.66537 | 373 ft | 5 kts | 170° |
| 2026-05-01 13:28 | 55.00964 | 82.66544 | 373 ft | 0 kts | 171° |